createdAt,value
2022-12-23T00:01:55.017Z,96353.97
2022-12-23T00:04:23.603Z,96348.72
2022-12-23T00:06:52.177Z,96353.00
2022-12-23T00:09:20.655Z,96342.47
2022-12-23T00:12:07.789Z,96346.91
2022-12-23T00:14:53.647Z,96344.28
2022-12-23T00:17:23.123Z,96340.97
2022-12-23T00:19:51.874Z,96340.81
2022-12-23T00:22:20.333Z,96342.63
2022-12-23T00:24:48.803Z,96331.94
2022-12-23T00:27:18.551Z,96334.56
2022-12-23T00:29:46.997Z,96329.31
2022-12-23T00:32:15.462Z,96319.63
2022-12-23T00:34:44.086Z,96325.84
2022-12-23T00:37:12.550Z,96316.97
2022-12-23T00:40:02.721Z,96320.59
2022-12-23T00:42:53.473Z,96321.41
2022-12-23T00:45:21.984Z,96310.88
2022-12-23T00:48:08.419Z,96308.25
2022-12-23T00:50:38.840Z,96308.25
2022-12-23T00:53:07.888Z,96312.53
2022-12-23T00:55:36.362Z,96310.75
2022-12-23T00:58:06.168Z,96298.56
2022-12-23T01:00:51.945Z,96294.13
2022-12-23T01:03:38.028Z,96290.50
2022-12-23T01:06:06.887Z,96288.84
2022-12-23T01:08:35.410Z,96293.16
2022-12-23T01:11:04.513Z,96284.41
2022-12-23T01:13:34.642Z,96284.41
2022-12-23T01:16:04.613Z,96279.00
2022-12-23T01:18:33.233Z,96279.97
2022-12-23T01:21:03.818Z,96281.78
2022-12-23T01:23:32.340Z,96279.00
2022-12-23T01:26:02.204Z,96280.81
2022-12-23T01:28:31.496Z,96285.25
2022-12-23T01:31:03.084Z,96290.38
2022-12-23T01:33:32.440Z,96282.47
2022-12-23T01:36:01.832Z,96277.19
2022-12-23T01:38:30.579Z,96272.75
2022-12-23T01:40:59.084Z,96275.53
2022-12-23T01:43:45.720Z,96281.50
2022-12-23T01:46:16.122Z,96279.69
2022-12-23T01:48:46.614Z,96271.94
2022-12-23T01:51:17.538Z,96276.38
2022-12-23T01:53:48.662Z,96270.13
2022-12-23T01:56:19.025Z,96279.69
2022-12-23T01:58:49.943Z,96282.31
2022-12-23T02:01:37.297Z,96274.56
2022-12-23T02:04:07.936Z,96280.81
2022-12-23T02:06:56.264Z,96277.19
2022-12-23T02:09:27.814Z,96276.38
2022-12-23T02:12:21.383Z,96280.66
2022-12-23T02:15:28.404Z,96284.13
2022-12-23T02:18:10.257Z,96282.47
2022-12-23T02:21:13.819Z,96279.00
2022-12-23T02:24:16.314Z,96283.28
2022-12-23T02:27:00.239Z,96288.56
2022-12-23T02:30:02.286Z,96282.47
2022-12-23T02:32:38.468Z,96279.16
2022-12-23T02:35:12.409Z,96285.25
2022-12-23T02:37:45.507Z,96279.16
2022-12-23T02:40:18.189Z,96279.84
2022-12-23T02:42:49.085Z,96283.28
2022-12-23T02:45:19.915Z,96284.94
2022-12-23T02:47:52.574Z,96285.94
2022-12-23T02:50:25.490Z,96282.47
2022-12-23T02:52:55.039Z,96290.38
2022-12-23T02:55:25.641Z,96278.84
2022-12-23T02:57:55.345Z,96283.28
2022-12-23T03:00:24.216Z,96279.00
2022-12-23T03:02:54.091Z,96277.19
2022-12-23T03:05:27.824Z,96289.38
2022-12-23T03:07:59.532Z,96284.13
2022-12-23T03:10:35.742Z,96282.47
2022-12-23T03:13:10.275Z,96283.28
2022-12-23T03:15:42.633Z,96276.38
2022-12-23T03:18:15.609Z,96272.75
2022-12-23T03:20:48.728Z,96279.84
2022-12-23T03:23:20.807Z,96277.19
2022-12-23T03:25:54.721Z,96284.13
2022-12-23T03:28:28.090Z,96282.47
2022-12-23T03:30:58.912Z,96285.09
2022-12-23T03:33:30.928Z,96278.19
2022-12-23T03:36:02.674Z,96279.84
2022-12-23T03:38:33.793Z,96282.63
2022-12-23T03:41:06.194Z,96288.19
2022-12-23T03:43:38.399Z,96292.31
2022-12-23T03:46:11.795Z,96290.81
2022-12-23T03:48:44.005Z,96290.50
2022-12-23T03:51:16.859Z,96284.28
2022-12-23T03:53:48.519Z,96297.59
2022-12-23T03:56:29.375Z,96289.69
2022-12-23T03:59:00.170Z,96296.75
2022-12-23T04:01:32.730Z,96300.22
2022-12-23T04:04:05.325Z,96300.50
2022-12-23T04:06:37.460Z,96295.41
2022-12-23T04:09:07.381Z,96303.28
2022-12-23T04:11:36.481Z,96300.66
2022-12-23T04:14:04.870Z,96299.69
2022-12-23T04:16:33.717Z,96302.47
2022-12-23T04:19:03.759Z,96297.34
2022-12-23T04:21:32.158Z,96304.41
2022-12-23T04:24:00.727Z,96310.34
2022-12-23T04:26:29.150Z,96303.44
2022-12-23T04:28:57.517Z,96301.50
2022-12-23T04:31:26.115Z,96303.59
2022-12-23T04:33:54.671Z,96301.09
2022-12-23T04:36:24.565Z,96305.09
2022-12-23T04:38:53.080Z,96309.81
2022-12-23T04:41:21.801Z,96314.94
2022-12-23T04:43:52.951Z,96322.00
2022-12-23T04:46:22.123Z,96328.25
2022-12-23T04:48:50.544Z,96332.41
2022-12-23T04:51:19.046Z,96333.22
2022-12-23T04:53:49.121Z,96335.03
2022-12-23T04:56:17.533Z,96342.09
2022-12-23T04:58:46.022Z,96336.00
2022-12-23T05:01:14.599Z,96342.09
2022-12-23T05:03:43.324Z,96334.03
2022-12-23T05:06:11.882Z,96339.31
2022-12-23T05:08:40.377Z,96335.84
2022-12-23T05:11:10.323Z,96341.13
2022-12-23T05:13:38.707Z,96335.69
2022-12-23T05:16:08.032Z,96349.00
2022-12-23T05:18:36.482Z,96346.00
2022-12-23T05:21:05.534Z,96346.69
2022-12-23T05:23:33.965Z,96340.72
2022-12-23T05:26:02.451Z,96355.25
2022-12-23T05:28:32.463Z,96357.06
2022-12-23T05:31:01.089Z,96357.75
2022-12-23T05:33:30.165Z,96357.88
2022-12-23T05:35:58.959Z,96367.28
2022-12-23T05:38:28.120Z,96377.00
2022-12-23T05:40:56.703Z,96375.34
2022-12-23T05:43:25.674Z,96368.25
2022-12-23T05:45:56.220Z,96375.34
2022-12-23T05:48:25.594Z,96370.75
2022-12-23T05:50:54.710Z,96364.50
2022-12-23T05:53:24.583Z,96366.31
2022-12-23T05:55:53.482Z,96369.09
2022-12-23T05:58:22.170Z,96375.03
2022-12-23T06:00:50.639Z,96372.13
2022-12-23T06:03:20.517Z,96374.06
2022-12-23T06:05:51.909Z,96377.66
2022-12-23T06:08:20.524Z,96383.91
2022-12-23T06:10:49.225Z,96386.53
2022-12-23T06:13:17.677Z,96398.59
2022-12-23T06:15:47.292Z,96409.25
2022-12-23T06:18:15.838Z,96398.72
2022-12-23T06:20:48.061Z,96409.94
2022-12-23T06:23:16.444Z,96403.00
2022-12-23T06:25:44.875Z,96405.50
2022-12-23T06:28:13.386Z,96417.84
2022-12-23T06:30:41.876Z,96417.16
2022-12-23T06:33:10.297Z,96429.19
2022-12-23T06:35:38.718Z,96429.63
2022-12-23T06:38:11.996Z,96437.25
2022-12-23T06:40:41.125Z,96426.72
2022-12-23T06:43:11.471Z,96429.34
2022-12-23T06:45:39.991Z,96437.78
2022-12-23T06:48:08.565Z,96434.47
2022-12-23T06:50:36.991Z,96429.03
2022-12-23T06:53:06.241Z,96441.09
2022-12-23T06:55:36.535Z,96443.72
2022-12-23T06:58:05.296Z,96445.22
2022-12-23T07:00:34.439Z,96446.50
2022-12-23T07:03:03.714Z,96450.66
2022-12-23T07:05:36.959Z,96460.06
2022-12-23T07:08:07.025Z,96459.75
2022-12-23T07:10:37.086Z,96471.13
2022-12-23T07:13:07.009Z,96469.31
2022-12-23T07:15:35.654Z,96472.63
2022-12-23T07:18:05.252Z,96479.69
2022-12-23T07:20:34.316Z,96480.53
2022-12-23T07:23:03.110Z,96489.41
2022-12-23T07:25:32.126Z,96485.13
2022-12-23T07:28:02.175Z,96484.13
2022-12-23T07:30:30.817Z,96488.56
2022-12-23T07:33:00.205Z,96490.22
2022-12-23T07:35:30.931Z,96503.53
2022-12-23T07:38:00.049Z,96503.53
2022-12-23T07:40:28.785Z,96502.13
2022-12-23T07:42:58.811Z,96510.31
2022-12-23T07:45:30.871Z,96511.84
2022-12-23T07:48:03.024Z,96508.22
2022-12-23T07:50:31.759Z,96515.16
2022-12-23T07:53:00.199Z,96509.88
2022-12-23T07:55:28.742Z,96506.28
2022-12-23T07:58:00.535Z,96514.19
2022-12-23T08:00:30.619Z,96503.66
2022-12-23T08:02:59.269Z,96506.28
2022-12-23T08:05:27.809Z,96515.00
2022-12-23T08:07:56.249Z,96511.41
2022-12-23T08:10:24.765Z,96516.53
2022-12-23T08:12:53.199Z,96513.88
2022-12-23T08:15:21.803Z,96514.72
2022-12-23T08:17:51.665Z,96511.94
2022-12-23T08:20:20.110Z,96518.72
2022-12-23T08:22:48.535Z,96516.22
2022-12-23T08:25:17.112Z,96515.25
2022-12-23T08:27:45.613Z,96513.47
2022-12-23T08:30:14.535Z,96514.28
2022-12-23T08:32:43.077Z,96518.72
2022-12-23T08:35:13.019Z,96515.13
2022-12-23T08:37:41.615Z,96510.69
2022-12-23T08:40:10.914Z,96511.50
2022-12-23T08:42:39.351Z,96511.34
2022-12-23T08:45:08.838Z,96520.09
2022-12-23T08:47:37.361Z,96534.09
2022-12-23T08:50:06.730Z,96534.78
2022-12-23T08:52:36.570Z,96546.28
2022-12-23T08:55:05.355Z,96548.91
2022-12-23T08:57:35.259Z,96563.06
2022-12-23T09:00:05.374Z,96563.06
2022-12-23T09:02:34.203Z,96557.78
2022-12-23T09:05:03.051Z,96567.34
2022-12-23T09:07:31.896Z,96569.69
2022-12-23T09:10:01.946Z,96566.09
2022-12-23T09:12:30.425Z,96565.94
2022-12-23T09:14:58.901Z,96562.34
2022-12-23T09:17:27.307Z,96556.91
2022-12-23T09:19:55.716Z,96559.25
2022-12-23T09:22:24.088Z,96551.22
2022-12-23T09:24:52.680Z,96551.22
2022-12-23T09:27:22.612Z,96552.88
2022-12-23T09:29:50.963Z,96558.16
2022-12-23T09:32:19.570Z,96550.88
2022-12-23T09:34:48.114Z,96552.72
2022-12-23T09:37:17.343Z,96552.41
2022-12-23T09:39:47.058Z,96545.47
2022-12-23T09:42:28.845Z,96559.34
2022-12-23T09:45:06.377Z,96557.38
2022-12-23T09:47:35.306Z,96558.22
2022-12-23T09:50:08.322Z,96552.94
2022-12-23T09:52:41.570Z,96550.16
2022-12-23T09:55:11.868Z,96552.78
2022-12-23T09:57:49.123Z,96549.31
2022-12-23T10:00:19.422Z,96546.53
2022-12-23T10:03:02.519Z,96539.47
2022-12-23T10:05:37.099Z,96538.50
2022-12-23T10:08:10.167Z,96536.69
2022-12-23T10:10:42.155Z,96538.34
2022-12-23T10:13:20.559Z,96538.34
2022-12-23T10:15:49.713Z,96523.50
2022-12-23T10:18:22.271Z,96526.97
2022-12-23T10:20:54.895Z,96528.50
2022-12-23T10:23:29.246Z,96527.50
2022-12-23T10:25:57.758Z,96521.28
2022-12-23T10:28:29.554Z,96529.84
2022-12-23T10:31:38.654Z,96529.72
2022-12-23T10:33:59.438Z,96520.97
2022-12-23T10:36:36.393Z,96520.16
2022-12-23T10:39:12.946Z,96513.06
2022-12-23T10:41:59.520Z,96511.41
2022-12-23T10:44:42.104Z,96498.75
2022-12-23T10:47:17.103Z,96510.13
2022-12-23T10:49:52.501Z,96517.22
2022-12-23T10:52:23.459Z,96517.06
2022-12-23T10:54:51.964Z,96513.44
2022-12-23T10:57:21.415Z,96512.63
2022-12-23T10:59:51.538Z,96514.28
2022-12-23T11:02:33.713Z,96509.84
2022-12-23T11:05:02.330Z,96496.50
2022-12-23T11:07:47.257Z,96493.72
2022-12-23T11:10:19.304Z,96483.03
2022-12-23T11:12:49.251Z,96492.75
2022-12-23T11:15:33.524Z,96491.81
2022-12-23T11:18:05.130Z,96486.53
2022-12-23T11:20:34.353Z,96492.47
2022-12-23T11:23:04.385Z,96492.47
2022-12-23T11:25:36.199Z,96498.44
2022-12-23T11:28:08.555Z,96497.59
2022-12-23T11:30:53.465Z,96496.78
2022-12-23T11:33:26.734Z,96482.63
2022-12-23T11:36:10.149Z,96492.19
2022-12-23T11:38:39.197Z,96484.44
2022-12-23T11:41:09.069Z,96484.28
2022-12-23T11:43:40.402Z,96495.50
2022-12-23T11:46:19.050Z,96486.75
2022-12-23T11:48:54.427Z,96482.31
2022-12-23T11:51:26.901Z,96479.69
2022-12-23T11:54:00.973Z,96478.69
2022-12-23T11:56:30.828Z,96475.09
2022-12-23T11:59:06.849Z,96471.47
2022-12-23T12:01:37.561Z,96465.38
2022-12-23T12:04:09.222Z,96460.09
2022-12-23T12:06:43.599Z,96450.38
2022-12-23T12:09:13.673Z,96454.69
2022-12-23T12:11:48.101Z,96445.78
2022-12-23T12:14:22.372Z,96447.44
2022-12-23T12:16:59.716Z,96449.25
2022-12-23T12:19:31.576Z,96450.09
2022-12-23T12:22:04.011Z,96444.66
2022-12-23T12:24:38.039Z,96436.75
2022-12-23T12:27:07.895Z,96432.31
2022-12-23T12:29:38.937Z,96426.88
2022-12-23T12:32:13.748Z,96418.97
2022-12-23T12:34:47.081Z,96410.25
2022-12-23T12:37:23.450Z,96414.53
2022-12-23T12:39:55.393Z,96403.00
2022-12-23T12:42:29.165Z,96412.56
2022-12-23T12:45:04.098Z,96412.56
2022-12-23T12:47:57.053Z,96396.75
2022-12-23T12:50:31.151Z,96394.09
2022-12-23T12:53:04.947Z,96399.22
2022-12-23T12:55:36.660Z,96395.63
2022-12-23T12:58:05.620Z,96392.97
2022-12-23T13:00:42.991Z,96390.34
2022-12-23T13:03:24.418Z,96382.28
2022-12-23T13:06:01.479Z,96380.63
2022-12-23T13:08:41.232Z,96384.75
2022-12-23T13:11:13.482Z,96373.38
2022-12-23T13:13:47.921Z,96375.03
2022-12-23T13:16:27.113Z,96371.44
2022-12-23T13:19:02.249Z,96371.44
2022-12-23T13:21:34.352Z,96359.06
2022-12-23T13:24:10.522Z,96356.44
2022-12-23T13:26:50.448Z,96351.16
2022-12-23T13:29:34.632Z,96343.09
2022-12-23T13:32:12.401Z,96341.13
2022-12-23T13:34:47.374Z,96337.81
2022-12-23T13:37:24.473Z,96333.22
2022-12-23T13:39:58.056Z,96329.59
2022-12-23T13:42:31.337Z,96326.13
2022-12-23T13:45:00.665Z,96325.97
2022-12-23T13:47:37.013Z,96333.06
2022-12-23T13:50:13.224Z,96344.28
2022-12-23T13:52:55.719Z,96337.34
2022-12-23T13:55:49.392Z,96334.56
2022-12-23T13:58:19.558Z,96339.84
2022-12-23T14:00:48.093Z,96341.50
2022-12-23T14:03:24.140Z,96328.31
2022-12-23T14:06:38.198Z,96328.31
2022-12-23T14:09:08.184Z,96314.97
2022-12-23T14:11:36.697Z,96314.97
2022-12-23T14:14:06.450Z,96309.69
2022-12-23T14:16:46.686Z,96310.53
2022-12-23T14:19:31.480Z,96311.34
2022-12-23T14:22:08.897Z,96308.88
2022-12-23T14:25:02.538Z,96305.25
2022-12-23T14:27:37.753Z,96300.78
2022-12-23T14:30:12.373Z,96302.44
2022-12-23T14:32:45.366Z,96298.81
2022-12-23T14:35:46.685Z,96290.09
2022-12-23T14:38:32.486Z,96282.19
2022-12-23T14:41:24.573Z,96295.22
2022-12-23T14:43:58.048Z,96288.13
2022-12-23T14:46:55.109Z,96288.13
2022-12-23T14:49:40.292Z,96281.88
2022-12-23T14:52:44.289Z,96277.41
2022-12-23T14:55:41.900Z,96280.88
2022-12-23T14:58:33.540Z,96283.53
2022-12-23T15:01:05.699Z,96274.59
2022-12-23T15:03:36.475Z,96264.03
2022-12-23T15:06:07.428Z,96257.16
2022-12-23T15:08:39.410Z,96265.84
2022-12-23T15:11:09.450Z,96261.41
2022-12-23T15:13:39.460Z,96263.06
2022-12-23T15:16:08.756Z,96262.22
2022-12-23T15:18:37.315Z,96266.69
2022-12-23T15:21:12.554Z,96258.75
2022-12-23T15:23:49.598Z,96255.16
2022-12-23T15:26:18.434Z,96254.31
2022-12-23T15:28:48.335Z,96253.50
2022-12-23T15:31:29.705Z,96245.56
2022-12-23T15:34:04.006Z,96258.59
2022-12-23T15:36:36.123Z,96251.53
2022-12-23T15:39:10.267Z,96244.44
2022-12-23T15:41:46.508Z,96241.78
2022-12-23T15:44:20.440Z,96240.97
2022-12-23T15:46:50.732Z,96249.56
2022-12-23T15:49:20.567Z,96250.38
2022-12-23T15:52:07.810Z,96247.75
2022-12-23T15:54:41.490Z,96247.75
2022-12-23T15:57:17.811Z,96245.94
2022-12-23T15:59:47.805Z,96242.47
2022-12-23T16:05:09.992Z,96245.94
2022-12-23T16:07:39.818Z,96244.94
2022-12-23T16:10:15.223Z,96251.03
2022-12-23T16:12:44.959Z,96245.78
2022-12-23T16:15:26.584Z,96239.66
2022-12-23T16:18:13.322Z,96244.94
2022-12-23T16:20:43.207Z,96235.06
2022-12-23T16:23:12.845Z,96238.69
2022-12-23T16:25:46.806Z,96231.44
2022-12-23T16:28:22.944Z,96234.06
2022-12-23T16:30:54.642Z,96227.16
2022-12-23T16:33:28.335Z,96226.47
2022-12-23T16:35:57.966Z,96225.50
2022-12-23T16:38:27.768Z,96227.16
2022-12-23T16:40:57.717Z,96225.50
2022-12-23T16:43:26.387Z,96230.59
2022-12-23T16:45:58.010Z,96224.50
2022-12-23T16:48:30.252Z,96227.81
2022-12-23T16:50:58.905Z,96226.16
2022-12-23T16:53:27.714Z,96216.59
2022-12-23T16:56:00.475Z,96219.91
2022-12-23T16:58:30.267Z,96225.84
2022-12-23T17:01:00.452Z,96219.59
2022-12-23T17:03:29.557Z,96227.50
2022-12-23T17:05:58.406Z,96223.88
2022-12-23T17:08:26.911Z,96227.34
2022-12-23T17:10:57.090Z,96230.81
2022-12-23T17:13:25.578Z,96228.16
2022-12-23T17:15:53.936Z,96231.78
2022-12-23T17:18:23.656Z,96233.59
2022-12-23T17:20:52.108Z,96227.19
2022-12-23T17:23:29.091Z,96229.00
2022-12-23T17:25:58.242Z,96228.16
2022-12-23T17:28:30.564Z,96243.84
2022-12-23T17:30:59.473Z,96239.38
2022-12-23T17:33:30.952Z,96234.09
2022-12-23T17:35:59.665Z,96233.13
2022-12-23T17:38:29.098Z,96227.84
2022-12-23T17:40:59.348Z,96228.00
2022-12-23T17:43:28.391Z,96230.47
2022-12-23T17:45:56.886Z,96226.19
2022-12-23T17:48:31.142Z,96228.00
2022-12-23T17:51:01.549Z,96240.03
2022-12-23T17:53:30.031Z,96234.78
2022-12-23T17:55:58.461Z,96241.84
2022-12-23T17:58:26.882Z,96234.78
2022-12-23T18:00:55.422Z,96226.84
2022-12-23T18:03:24.828Z,96230.47
2022-12-23T18:06:01.122Z,96227.69
2022-12-23T18:08:31.908Z,96234.44
2022-12-23T18:11:00.869Z,96227.53
2022-12-23T18:13:29.475Z,96229.19
2022-12-23T18:15:58.208Z,96233.47
2022-12-23T18:18:37.812Z,96231.66
2022-12-23T18:21:11.710Z,96247.31
2022-12-23T18:23:41.634Z,96234.97
2022-12-23T18:26:14.296Z,96240.41
2022-12-23T18:28:43.295Z,96242.38
2022-12-23T18:31:15.216Z,96240.41
2022-12-23T18:33:43.842Z,96243.03
2022-12-23T18:36:21.534Z,96243.69
2022-12-23T18:38:52.158Z,96232.81
2022-12-23T18:41:21.016Z,96230.34
2022-12-23T18:43:49.667Z,96231.19
2022-12-23T18:46:20.027Z,96233.66
2022-12-23T18:48:49.526Z,96232.00
2022-12-23T18:51:19.197Z,96221.28
2022-12-23T18:53:48.940Z,96228.22
2022-12-23T18:56:21.075Z,96244.22
2022-12-23T18:58:49.766Z,96242.41
2022-12-23T19:01:19.318Z,96251.28
2022-12-23T19:03:48.166Z,96251.97
2022-12-23T19:06:17.282Z,96247.50
2022-12-23T19:08:45.829Z,96250.31
2022-12-23T19:11:15.556Z,96252.78
2022-12-23T19:13:45.706Z,96262.34
2022-12-23T19:16:15.941Z,96266.66
2022-12-23T19:18:44.988Z,96270.28
2022-12-23T19:21:13.582Z,96279.84
2022-12-23T19:23:42.731Z,96286.94
2022-12-23T19:26:12.895Z,96282.66
2022-12-23T19:28:42.363Z,96282.66
2022-12-23T19:31:13.715Z,96291.53
2022-12-23T19:33:44.896Z,96295.00
2022-12-23T19:36:14.831Z,96259.38
2022-12-23T19:38:43.316Z,96252.28
2022-12-23T19:41:11.964Z,96273.91
2022-12-23T19:43:40.505Z,96261.53
2022-12-23T19:46:10.093Z,96257.91
2022-12-23T19:48:39.973Z,96260.72
2022-12-23T19:51:09.872Z,96261.03
2022-12-23T19:53:39.003Z,96274.22
2022-12-23T19:56:09.218Z,96287.88
2022-12-23T19:58:39.333Z,96277.50
2022-12-23T20:01:09.177Z,96272.72
2022-12-23T20:03:38.377Z,96289.06
2022-12-23T20:06:10.318Z,96296.66
2022-12-23T20:08:38.821Z,96296.00
2022-12-23T20:11:09.361Z,96309.84
2022-12-23T20:13:37.990Z,96307.22
2022-12-23T20:16:07.618Z,96312.50
2022-12-23T20:18:36.210Z,96318.59
2022-12-23T20:21:04.917Z,96329.97
2022-12-23T20:23:35.696Z,96321.25
2022-12-23T20:26:04.450Z,96333.44
2022-12-23T20:28:33.582Z,96339.56
2022-12-23T20:31:07.983Z,96338.56
2022-12-23T20:33:37.177Z,96337.75
2022-12-23T20:36:07.512Z,96357.88
2022-12-23T20:38:38.661Z,96364.66
2022-12-23T20:41:07.190Z,96368.28
2022-12-23T20:43:35.791Z,96374.38
2022-12-23T20:46:04.935Z,96374.53
2022-12-23T20:48:34.646Z,96370.91
2022-12-23T20:51:05.866Z,96361.03
2022-12-23T20:53:34.414Z,96356.56
2022-12-23T20:56:06.191Z,96351.28
2022-12-23T20:58:52.632Z,96348.50
2022-12-23T21:01:21.417Z,96353.94
2022-12-23T21:03:49.946Z,96348.66
2022-12-23T21:06:18.399Z,96351.28
2022-12-23T21:08:46.845Z,96359.06
2022-12-23T21:11:17.322Z,96368.78
2022-12-23T21:13:48.240Z,96379.34
2022-12-23T21:16:16.774Z,96378.34
2022-12-23T21:18:49.129Z,96365.97
2022-12-23T21:21:17.828Z,96377.38
2022-12-23T21:23:46.624Z,96396.00
2022-12-23T21:26:18.687Z,96406.56
2022-12-23T21:28:48.899Z,96425.03
2022-12-23T21:31:19.944Z,96415.47
2022-12-23T21:33:49.527Z,96405.56
2022-12-23T21:36:21.326Z,96417.94
2022-12-23T21:38:50.352Z,96409.34
2022-12-23T21:41:22.045Z,96409.19
2022-12-23T21:43:51.061Z,96409.19
2022-12-23T21:46:21.011Z,96413.81
2022-12-23T21:48:50.006Z,96419.91
2022-12-23T21:51:20.140Z,96432.94
2022-12-23T21:53:49.980Z,96445.16
2022-12-23T21:56:21.511Z,96440.41
2022-12-23T21:58:50.008Z,96442.06
2022-12-23T22:01:20.106Z,96443.19
2022-12-23T22:03:49.888Z,96462.81
2022-12-23T22:06:19.985Z,96459.50
2022-12-23T22:08:48.868Z,96479.63
2022-12-23T22:11:19.442Z,96485.75
2022-12-23T22:13:49.698Z,96492.53
2022-12-23T22:16:20.361Z,96500.28
2022-12-23T22:18:49.420Z,96495.84
2022-12-23T22:21:20.287Z,96476.84
2022-12-23T22:23:49.622Z,96485.22
2022-12-23T22:26:24.562Z,96485.22
2022-12-23T22:28:56.457Z,96490.19
2022-12-23T22:31:30.057Z,96494.47
2022-12-23T22:33:58.686Z,96484.59
2022-12-23T22:36:27.677Z,96480.16
2022-12-23T22:38:57.744Z,96497.50
2022-12-23T22:41:27.844Z,96509.03
2022-12-23T22:43:58.391Z,96509.69
2022-12-23T22:46:27.219Z,96518.44
2022-12-23T22:48:56.377Z,96518.44
2022-12-23T22:51:26.686Z,96530.66
2022-12-23T22:53:55.754Z,96538.75
2022-12-23T22:56:25.607Z,96545.00
2022-12-23T22:58:54.611Z,96541.38
2022-12-23T23:01:26.159Z,96535.28
2022-12-23T23:03:57.734Z,96543.19
2022-12-23T23:06:27.221Z,96556.22
2022-12-23T23:08:56.547Z,96557.59
2022-12-23T23:11:26.404Z,96550.66
2022-12-23T23:13:55.024Z,96551.47
2022-12-23T23:16:25.414Z,96559.25
2022-12-23T23:18:54.575Z,96563.69
2022-12-23T23:21:23.467Z,96557.59
2022-12-23T23:23:51.970Z,96565.50
2022-12-23T23:26:21.128Z,96562.03
2022-12-23T23:28:49.728Z,96566.34
2022-12-23T23:34:07.861Z,96549.50
2022-12-23T23:36:36.468Z,96552.81
2022-12-23T23:39:06.055Z,96558.25
2022-12-23T23:41:35.792Z,96567.00
2022-12-23T23:44:04.243Z,96563.53
2022-12-23T23:46:32.741Z,96566.34
2022-12-23T23:49:01.348Z,96557.28
2022-12-23T23:51:31.092Z,96557.44
2022-12-23T23:53:59.570Z,96571.31
2022-12-23T23:56:33.846Z,96581.72
2022-12-23T23:59:06.120Z,96580.06
